createdAt,value
2022-10-22T00:00:47.893Z,4.67
2022-10-22T00:03:14.723Z,4.07
2022-10-22T00:05:41.472Z,4.30
2022-10-22T00:08:08.236Z,3.97
2022-10-22T00:10:37.159Z,4.03
2022-10-22T00:13:04.669Z,4.70
2022-10-22T00:15:31.526Z,5.72
2022-10-22T00:17:58.701Z,4.82
2022-10-22T00:20:25.478Z,4.90
2022-10-22T00:22:52.879Z,5.55
2022-10-22T00:25:20.308Z,4.73
2022-10-22T00:27:47.476Z,5.22
2022-10-22T00:30:14.269Z,5.05
2022-10-22T00:32:41.657Z,4.70
2022-10-22T00:35:09.239Z,5.18
2022-10-22T00:37:36.073Z,5.63
2022-10-22T00:40:03.724Z,5.63
2022-10-22T00:42:30.721Z,5.53
2022-10-22T00:45:06.067Z,5.10
2022-10-22T00:47:37.630Z,5.43
2022-10-22T00:50:08.112Z,5.30
2022-10-22T00:52:35.725Z,5.07
2022-10-22T00:55:02.817Z,4.95
2022-10-22T00:57:30.041Z,5.10
2022-10-22T00:59:57.714Z,5.07
2022-10-22T01:02:24.701Z,5.20
2022-10-22T01:04:51.881Z,5.28
2022-10-22T01:07:21.731Z,4.95
2022-10-22T01:10:20.004Z,5.13
2022-10-22T01:13:03.725Z,4.97
2022-10-22T01:15:55.703Z,4.90
2022-10-22T01:18:48.508Z,4.97
2022-10-22T01:21:27.045Z,4.65
2022-10-22T01:24:14.546Z,4.47
2022-10-22T01:27:00.889Z,5.30
2022-10-22T01:29:28.021Z,4.80
2022-10-22T01:32:00.957Z,5.93
2022-10-22T01:34:30.047Z,5.43
2022-10-22T01:36:59.217Z,5.35
2022-10-22T01:39:28.794Z,4.60
2022-10-22T01:41:57.009Z,5.47
2022-10-22T01:47:15.490Z,5.15
2022-10-22T01:50:11.316Z,5.20
2022-10-22T01:52:56.245Z,4.80
2022-10-22T01:55:23.628Z,4.57
2022-10-22T01:58:07.994Z,4.63
2022-10-22T02:00:38.443Z,5.07
2022-10-22T02:03:23.657Z,5.57
2022-10-22T02:05:56.812Z,4.43
2022-10-22T02:08:32.260Z,4.53
2022-10-22T02:11:01.014Z,4.60
2022-10-22T02:13:44.836Z,4.80
2022-10-22T02:16:16.760Z,4.93
2022-10-22T02:18:46.291Z,4.85
2022-10-22T02:21:13.795Z,4.80
2022-10-22T02:23:41.103Z,4.35
2022-10-22T02:26:19.476Z,5.20
2022-10-22T02:28:59.647Z,5.18
2022-10-22T02:31:30.965Z,4.88
2022-10-22T02:34:02.953Z,4.80
2022-10-22T02:36:30.165Z,4.70
2022-10-22T02:38:58.784Z,5.00
2022-10-22T02:41:25.707Z,5.25
2022-10-22T02:43:55.507Z,5.25
2022-10-22T02:46:23.494Z,5.20
2022-10-22T02:48:51.055Z,5.60
2022-10-22T02:51:18.420Z,5.68
2022-10-22T02:53:45.178Z,5.55
2022-10-22T02:56:12.597Z,5.55
2022-10-22T02:58:39.404Z,6.57
2022-10-22T03:01:06.652Z,5.03
2022-10-22T03:03:33.533Z,5.50
2022-10-22T03:06:00.355Z,5.30
2022-10-22T03:08:27.172Z,5.30
2022-10-22T03:10:54.409Z,5.53
2022-10-22T03:13:21.338Z,5.82
2022-10-22T03:15:51.354Z,5.03
2022-10-22T03:18:18.731Z,5.38
2022-10-22T03:20:45.605Z,5.53
2022-10-22T03:23:17.803Z,5.67
2022-10-22T03:25:46.691Z,5.07
2022-10-22T03:28:15.504Z,5.75
2022-10-22T03:30:42.350Z,5.07
2022-10-22T03:33:09.138Z,6.00
2022-10-22T03:35:42.160Z,5.37
2022-10-22T03:38:09.122Z,5.13
2022-10-22T03:40:36.544Z,5.50
2022-10-22T03:43:03.876Z,5.97
2022-10-22T03:45:30.784Z,5.50
2022-10-22T03:47:57.966Z,5.30
2022-10-22T03:50:25.280Z,5.22
2022-10-22T03:52:53.667Z,5.13
2022-10-22T03:55:21.089Z,5.70
2022-10-22T03:57:48.308Z,4.78
2022-10-22T04:00:15.717Z,4.97
2022-10-22T04:02:42.505Z,6.03
2022-10-22T04:05:09.994Z,4.78
2022-10-22T04:07:37.506Z,4.75
2022-10-22T04:10:05.169Z,4.68
2022-10-22T04:12:32.182Z,5.03
2022-10-22T04:14:59.403Z,4.22
2022-10-22T04:17:26.771Z,4.80
2022-10-22T04:19:53.539Z,5.03
2022-10-22T04:22:20.900Z,5.28
2022-10-22T04:24:48.218Z,4.37
2022-10-22T04:27:15.041Z,5.05
2022-10-22T04:29:42.111Z,4.70
2022-10-22T04:32:09.437Z,4.88
2022-10-22T04:34:36.597Z,4.40
2022-10-22T04:37:04.808Z,4.47
2022-10-22T04:39:31.627Z,5.10
2022-10-22T04:41:58.924Z,4.82
2022-10-22T04:44:26.415Z,5.03
2022-10-22T04:46:53.156Z,5.10
2022-10-22T04:49:20.271Z,5.03
2022-10-22T04:51:47.459Z,5.10
2022-10-22T04:54:15.177Z,4.70
2022-10-22T04:56:42.738Z,5.10
2022-10-22T04:59:12.722Z,4.82
2022-10-22T05:01:44.216Z,9.33
2022-10-22T05:04:17.329Z,5.60
2022-10-22T05:06:45.001Z,4.32
2022-10-22T05:09:15.457Z,4.38
2022-10-22T05:11:48.784Z,4.60
2022-10-22T05:14:24.124Z,4.70
2022-10-22T05:16:51.863Z,4.88
2022-10-22T05:19:23.968Z,5.28
2022-10-22T05:21:56.350Z,4.50
2022-10-22T05:24:23.588Z,4.60
2022-10-22T05:26:51.370Z,4.93
2022-10-22T05:29:18.711Z,4.88
2022-10-22T05:31:46.193Z,5.40
2022-10-22T05:34:13.593Z,4.82
2022-10-22T05:36:40.611Z,4.15
2022-10-22T05:39:07.972Z,4.13
2022-10-22T05:41:35.751Z,5.05
2022-10-22T05:44:03.137Z,4.43
2022-10-22T05:46:33.722Z,5.10
2022-10-22T05:49:02.667Z,4.88
2022-10-22T05:51:32.013Z,4.33
2022-10-22T05:54:00.853Z,4.70
2022-10-22T05:56:29.753Z,4.68
2022-10-22T05:58:57.619Z,4.82
2022-10-22T06:01:27.829Z,4.13
2022-10-22T06:03:57.203Z,5.17
2022-10-22T06:06:24.334Z,4.72
2022-10-22T06:08:52.777Z,4.80
2022-10-22T06:11:21.532Z,4.30
2022-10-22T06:13:49.494Z,5.10
2022-10-22T06:16:16.925Z,5.53
2022-10-22T06:18:44.185Z,4.75
2022-10-22T06:21:13.799Z,4.65
2022-10-22T06:23:42.117Z,4.10
2022-10-22T06:26:09.873Z,4.22
2022-10-22T06:28:37.141Z,4.07
2022-10-22T06:31:04.894Z,5.00
2022-10-22T06:33:34.244Z,5.05
2022-10-22T06:36:12.415Z,4.93
2022-10-22T06:38:39.966Z,4.93
2022-10-22T06:41:10.117Z,4.33
2022-10-22T06:43:37.284Z,4.10
2022-10-22T06:46:07.434Z,4.07
2022-10-22T06:48:36.092Z,4.43
2022-10-22T06:51:05.680Z,3.80
2022-10-22T06:53:32.847Z,3.33
2022-10-22T06:56:00.039Z,4.32
2022-10-22T06:58:27.216Z,3.70
2022-10-22T07:01:20.362Z,4.00
2022-10-22T07:03:47.968Z,3.80
2022-10-22T07:06:15.203Z,3.50
2022-10-22T07:08:42.661Z,3.95
2022-10-22T07:11:12.985Z,3.83
2022-10-22T07:13:40.515Z,3.85
2022-10-22T07:16:08.058Z,3.85
2022-10-22T07:18:36.230Z,3.60
2022-10-22T07:21:03.927Z,3.33
2022-10-22T07:23:31.016Z,3.05
2022-10-22T07:25:58.368Z,3.25
2022-10-22T07:28:25.652Z,2.80
2022-10-22T07:30:52.890Z,3.37
2022-10-22T07:33:19.890Z,3.00
2022-10-22T07:35:46.747Z,2.60
2022-10-22T07:38:14.131Z,2.78
2022-10-22T07:40:40.897Z,2.97
2022-10-22T07:43:07.722Z,3.33
2022-10-22T07:45:34.491Z,2.85
2022-10-22T07:48:02.324Z,2.70
2022-10-22T07:50:29.260Z,3.15
2022-10-22T07:52:58.215Z,2.80
2022-10-22T07:55:25.773Z,2.83
2022-10-22T07:57:53.140Z,4.05
2022-10-22T08:00:23.087Z,2.83
2022-10-22T08:02:52.178Z,2.40
2022-10-22T08:05:19.286Z,3.10
2022-10-22T08:07:46.651Z,2.90
2022-10-22T08:10:13.759Z,2.70
2022-10-22T08:12:41.866Z,2.97
2022-10-22T08:15:09.824Z,2.90
2022-10-22T08:17:37.149Z,2.80
2022-10-22T08:20:04.627Z,2.97
2022-10-22T08:22:31.907Z,2.42
2022-10-22T08:25:00.491Z,3.05
2022-10-22T08:27:27.793Z,3.08
2022-10-22T08:29:55.040Z,2.53
2022-10-22T08:32:22.513Z,3.47
2022-10-22T08:34:49.453Z,2.80
2022-10-22T08:37:17.702Z,2.60
2022-10-22T08:39:45.312Z,3.20
2022-10-22T08:42:27.517Z,2.92
2022-10-22T08:45:12.313Z,2.47
2022-10-22T08:48:04.039Z,3.60
2022-10-22T08:50:40.936Z,3.47
2022-10-22T08:53:14.709Z,2.75
2022-10-22T08:55:42.168Z,3.03
2022-10-22T08:58:45.191Z,2.65
2022-10-22T09:01:19.827Z,2.40
2022-10-22T09:03:58.816Z,2.92
2022-10-22T09:06:29.382Z,3.28
2022-10-22T09:08:58.645Z,2.90
2022-10-22T09:11:30.975Z,3.05
2022-10-22T09:13:59.654Z,3.20
2022-10-22T09:17:08.405Z,2.97
2022-10-22T09:19:52.941Z,2.90
2022-10-22T09:22:46.203Z,2.92
2022-10-22T09:25:27.006Z,2.83
2022-10-22T09:27:58.306Z,2.95
2022-10-22T09:30:30.719Z,3.40
2022-10-22T09:33:07.093Z,2.47
2022-10-22T09:35:43.723Z,2.65
2022-10-22T09:38:14.840Z,2.78
2022-10-22T09:40:47.465Z,3.00
2022-10-22T09:43:17.616Z,2.42
2022-10-22T09:45:45.888Z,2.58
2022-10-22T09:48:20.312Z,2.80
2022-10-22T09:50:54.847Z,1.90
2022-10-22T09:53:27.196Z,2.80
2022-10-22T09:58:28.939Z,2.38
2022-10-22T10:01:00.808Z,2.40
2022-10-22T10:03:31.544Z,2.85
2022-10-22T10:06:03.127Z,2.70
2022-10-22T10:08:33.196Z,2.50
2022-10-22T10:11:09.665Z,3.38
2022-10-22T10:14:12.045Z,2.85
2022-10-22T10:16:53.267Z,2.53
2022-10-22T10:19:28.541Z,2.42
2022-10-22T10:22:17.235Z,2.55
2022-10-22T10:25:24.057Z,2.47
2022-10-22T10:27:58.161Z,2.00
2022-10-22T10:30:25.218Z,2.78
2022-10-22T10:32:52.345Z,2.10
2022-10-22T10:35:25.209Z,2.40
2022-10-22T10:38:11.426Z,1.90
2022-10-22T10:40:46.550Z,2.13
2022-10-22T10:43:48.475Z,2.00
2022-10-22T10:46:25.502Z,1.95
2022-10-22T10:48:57.247Z,2.05
2022-10-22T10:51:47.058Z,2.47
2022-10-22T10:54:36.301Z,3.25
2022-10-22T10:57:32.704Z,2.38
2022-10-22T11:00:22.354Z,2.63
2022-10-22T11:03:31.441Z,2.30
2022-10-22T11:06:01.641Z,1.95
2022-10-22T11:08:35.954Z,2.20
2022-10-22T11:14:16.087Z,2.50
2022-10-22T11:16:47.550Z,3.00
2022-10-22T11:19:46.137Z,2.88
2022-10-22T11:22:23.438Z,2.72
2022-10-22T11:25:19.976Z,2.40
2022-10-22T11:28:07.878Z,2.30
2022-10-22T11:30:39.282Z,2.53
2022-10-22T11:33:11.437Z,3.33
2022-10-22T11:35:42.535Z,2.35
2022-10-22T11:38:15.095Z,2.78
2022-10-22T11:41:09.638Z,3.30
2022-10-22T11:43:57.602Z,2.67
2022-10-22T11:46:26.371Z,2.17
2022-10-22T11:49:13.292Z,3.13
2022-10-22T11:51:42.548Z,2.40
2022-10-22T11:54:29.587Z,2.63
2022-10-22T11:57:16.628Z,3.10
2022-10-22T12:00:09.657Z,3.25
2022-10-22T12:02:44.346Z,2.80
2022-10-22T12:05:24.529Z,3.00
2022-10-22T12:08:02.642Z,2.73
2022-10-22T12:10:58.314Z,2.13
2022-10-22T12:13:30.227Z,2.70
2022-10-22T12:16:01.507Z,2.58
2022-10-22T12:18:34.659Z,2.25
2022-10-22T12:21:01.998Z,2.60
2022-10-22T12:23:35.520Z,2.67
2022-10-22T12:26:05.241Z,2.63
2022-10-22T12:28:41.182Z,2.92
2022-10-22T12:31:16.519Z,2.80
2022-10-22T12:33:43.912Z,2.93
2022-10-22T12:36:18.534Z,3.67
2022-10-22T12:38:48.366Z,2.60
2022-10-22T12:41:15.481Z,2.88
2022-10-22T12:43:42.340Z,2.50
2022-10-22T12:46:13.774Z,2.73
2022-10-22T12:48:43.125Z,2.75
2022-10-22T12:51:19.570Z,2.50
2022-10-22T12:53:53.112Z,2.67
2022-10-22T12:56:29.153Z,3.85
2022-10-22T12:59:00.225Z,2.83
2022-10-22T13:01:36.515Z,2.25
2022-10-22T13:04:20.116Z,2.65
2022-10-22T13:06:52.571Z,3.40
2022-10-22T13:09:25.287Z,2.92
2022-10-22T13:12:02.293Z,3.47
2022-10-22T13:14:31.720Z,3.28
2022-10-22T13:17:15.270Z,2.95
2022-10-22T13:19:44.887Z,2.80
2022-10-22T13:22:31.110Z,3.20
2022-10-22T13:25:03.289Z,3.23
2022-10-22T13:27:31.858Z,3.30
2022-10-22T13:30:02.648Z,3.10
2022-10-22T13:32:33.227Z,3.95
2022-10-22T13:35:02.101Z,2.78
2022-10-22T13:37:31.402Z,3.63
2022-10-22T13:39:58.277Z,3.45
2022-10-22T13:42:25.444Z,3.25
2022-10-22T13:44:52.329Z,3.10
2022-10-22T13:47:26.773Z,2.92
2022-10-22T13:49:59.258Z,2.60
2022-10-22T13:52:35.110Z,3.53
2022-10-22T13:55:02.753Z,2.75
2022-10-22T13:57:29.663Z,2.75
2022-10-22T13:59:56.517Z,3.10
2022-10-22T14:02:24.741Z,3.00
2022-10-22T14:04:51.893Z,2.70
2022-10-22T14:07:19.187Z,3.15
2022-10-22T14:09:46.493Z,3.30
2022-10-22T14:12:16.567Z,3.30
2022-10-22T14:14:43.877Z,3.97
2022-10-22T14:17:16.854Z,4.53
2022-10-22T14:19:48.402Z,3.00
2022-10-22T14:22:19.626Z,3.03
2022-10-22T14:24:47.202Z,3.15
2022-10-22T14:27:15.390Z,2.93
2022-10-22T14:29:42.265Z,3.75
2022-10-22T14:32:19.116Z,2.72
2022-10-22T14:34:46.882Z,3.15
2022-10-22T14:37:19.437Z,3.25
2022-10-22T14:39:51.711Z,3.07
2022-10-22T14:42:21.442Z,3.28
2022-10-22T14:44:48.382Z,3.60
2022-10-22T14:47:15.145Z,2.88
2022-10-22T14:49:42.406Z,3.15
2022-10-22T14:52:11.782Z,3.27
2022-10-22T14:54:41.641Z,3.05
2022-10-22T14:57:11.304Z,3.10
2022-10-22T14:59:38.164Z,3.10
2022-10-22T15:02:05.097Z,2.90
2022-10-22T15:04:32.397Z,2.93
2022-10-22T15:06:59.354Z,3.30
2022-10-22T15:09:26.566Z,3.15
2022-10-22T15:11:53.353Z,2.60
2022-10-22T15:14:20.576Z,3.03
2022-10-22T15:16:47.931Z,3.80
2022-10-22T15:19:14.746Z,3.20
2022-10-22T15:24:09.298Z,2.80
2022-10-22T15:26:36.229Z,3.05
2022-10-22T15:29:04.701Z,2.90
2022-10-22T15:32:06.990Z,2.90
2022-10-22T15:34:35.213Z,2.50
2022-10-22T15:37:04.554Z,3.63
2022-10-22T15:39:32.091Z,2.55
2022-10-22T15:41:59.859Z,3.88
2022-10-22T15:44:29.534Z,3.30
2022-10-22T15:46:57.035Z,3.20
2022-10-22T15:49:25.493Z,3.55
2022-10-22T15:51:52.904Z,3.25
2022-10-22T15:54:23.377Z,3.30
2022-10-22T15:56:50.255Z,3.80
2022-10-22T15:59:17.628Z,3.53
2022-10-22T16:01:45.273Z,3.63
2022-10-22T16:04:12.692Z,3.80
2022-10-22T16:06:42.541Z,3.80
2022-10-22T16:09:13.009Z,4.40
2022-10-22T16:11:40.419Z,4.10
2022-10-22T16:14:08.096Z,4.78
2022-10-22T16:16:39.465Z,3.92
2022-10-22T16:19:06.508Z,4.47
2022-10-22T16:21:33.963Z,4.20
2022-10-22T16:24:06.004Z,5.43
2022-10-22T16:26:33.890Z,4.47
2022-10-22T16:29:01.127Z,4.90
2022-10-22T16:31:28.349Z,3.92
2022-10-22T16:33:55.718Z,4.35
2022-10-22T16:36:22.997Z,4.10
2022-10-22T16:38:50.369Z,5.13
2022-10-22T16:41:19.654Z,4.80
2022-10-22T16:43:49.077Z,5.07
2022-10-22T16:46:18.553Z,4.72
2022-10-22T16:48:49.652Z,17.52
2022-10-22T16:51:19.920Z,23.92
2022-10-22T16:53:47.142Z,11.20
2022-10-22T16:56:16.021Z,5.53
2022-10-22T16:58:48.561Z,5.85
2022-10-22T17:01:18.130Z,9.63
2022-10-22T17:03:45.987Z,10.93
2022-10-22T17:06:13.622Z,12.93
2022-10-22T17:08:41.466Z,11.73
2022-10-22T17:11:20.108Z,9.18
2022-10-22T17:13:49.017Z,9.88
2022-10-22T17:16:17.710Z,9.10
2022-10-22T17:21:18.906Z,8.88
2022-10-22T17:23:46.516Z,8.15
2022-10-22T17:26:23.677Z,7.90
2022-10-22T17:28:50.950Z,7.95
2022-10-22T17:31:23.540Z,7.03
2022-10-22T17:33:52.634Z,6.78
2022-10-22T17:36:20.500Z,6.70
2022-10-22T17:38:52.468Z,11.15
2022-10-22T17:41:22.723Z,9.77
2022-10-22T17:43:49.744Z,10.05
2022-10-22T17:46:24.728Z,8.98
2022-10-22T17:48:59.916Z,8.93
2022-10-22T17:51:28.157Z,7.75
2022-10-22T17:53:55.435Z,7.30
2022-10-22T17:56:25.105Z,7.53
2022-10-22T17:58:52.444Z,8.00
2022-10-22T18:01:28.510Z,8.88
2022-10-22T18:03:59.771Z,8.52
2022-10-22T18:06:27.005Z,7.68
2022-10-22T18:11:27.660Z,7.45
2022-10-22T18:13:56.797Z,7.80
2022-10-22T18:16:24.546Z,7.25
2022-10-22T18:18:53.842Z,6.13
2022-10-22T18:21:21.619Z,6.38
2022-10-22T18:23:48.885Z,6.05
2022-10-22T18:26:19.336Z,5.38
2022-10-22T18:28:49.251Z,6.55
2022-10-22T18:31:22.578Z,6.45
2022-10-22T18:33:50.212Z,7.10
2022-10-22T18:36:20.346Z,6.80
2022-10-22T18:38:56.351Z,6.95
2022-10-22T18:41:24.073Z,7.75
2022-10-22T18:43:56.223Z,5.40
2022-10-22T18:46:26.818Z,6.67
2022-10-22T18:48:54.661Z,6.57
2022-10-22T18:51:21.951Z,6.85
2022-10-22T18:54:11.359Z,5.18
2022-10-22T18:56:41.719Z,6.32
2022-10-22T18:59:19.380Z,6.80
2022-10-22T19:01:46.667Z,7.35
2022-10-22T19:04:14.043Z,7.30
2022-10-22T19:06:45.285Z,8.40
2022-10-22T19:09:13.843Z,7.80
2022-10-22T19:11:40.787Z,8.00
2022-10-22T19:14:07.987Z,8.68
2022-10-22T19:16:37.633Z,8.40
2022-10-22T19:19:07.011Z,7.53
2022-10-22T19:21:34.519Z,7.65
2022-10-22T19:24:02.075Z,7.60
2022-10-22T19:26:29.837Z,7.57
2022-10-22T19:28:58.401Z,8.32
2022-10-22T19:31:27.061Z,7.65
2022-10-22T19:33:57.221Z,7.10
2022-10-22T19:36:25.294Z,6.70
2022-10-22T19:38:52.629Z,8.48
2022-10-22T19:41:21.345Z,7.00
2022-10-22T19:43:51.107Z,6.63
2022-10-22T19:46:19.011Z,7.43
2022-10-22T19:51:20.611Z,8.25
2022-10-22T19:53:48.174Z,7.68
2022-10-22T19:56:20.388Z,7.93
2022-10-22T19:58:47.737Z,8.57
2022-10-22T20:01:16.310Z,7.80
2022-10-22T20:03:43.830Z,8.85
2022-10-22T20:06:12.070Z,9.50
2022-10-22T20:08:39.386Z,9.43
2022-10-22T20:11:36.364Z,8.63
2022-10-22T20:14:03.649Z,8.67
2022-10-22T20:16:31.126Z,8.75
2022-10-22T20:19:03.540Z,8.95
2022-10-22T20:21:30.869Z,8.55
2022-10-22T20:23:58.329Z,8.05
2022-10-22T20:26:28.267Z,9.17
2022-10-22T20:28:56.702Z,8.48
2022-10-22T20:31:27.082Z,8.15
2022-10-22T20:34:00.049Z,9.27
2022-10-22T20:36:28.721Z,9.18
2022-10-22T20:39:01.147Z,9.43
2022-10-22T20:41:28.566Z,10.05
2022-10-22T20:43:55.770Z,9.75
2022-10-22T20:46:29.267Z,8.98
2022-10-22T20:49:01.544Z,9.35
2022-10-22T20:51:29.135Z,7.87
2022-10-22T20:53:56.755Z,8.32
2022-10-22T20:56:24.044Z,9.50
2022-10-22T20:58:56.556Z,9.30
2022-10-22T21:01:24.306Z,8.95
2022-10-22T21:03:52.665Z,9.17
2022-10-22T21:06:23.021Z,8.20
2022-10-22T21:08:51.333Z,8.25
2022-10-22T21:11:19.420Z,7.78
2022-10-22T21:13:46.924Z,7.40
2022-10-22T21:16:15.278Z,9.07
2022-10-22T21:18:42.504Z,8.82
2022-10-22T21:21:10.577Z,8.57
2022-10-22T21:23:37.510Z,9.05
2022-10-22T21:26:05.470Z,9.50
2022-10-22T21:28:37.132Z,8.70
2022-10-22T21:31:08.277Z,8.05
2022-10-22T21:33:39.549Z,8.02
2022-10-22T21:36:08.903Z,8.40
2022-10-22T21:38:36.849Z,6.60
2022-10-22T21:41:08.558Z,6.83
2022-10-22T21:43:38.221Z,8.57
2022-10-22T21:46:10.131Z,8.73
2022-10-22T21:48:38.054Z,8.73
2022-10-22T21:51:12.764Z,7.95
2022-10-22T21:53:40.389Z,6.73
2022-10-22T21:56:07.731Z,8.98
2022-10-22T21:58:35.648Z,7.68
2022-10-22T22:01:03.269Z,7.30
2022-10-22T22:03:30.318Z,8.13
2022-10-22T22:06:01.723Z,7.53
2022-10-22T22:08:29.060Z,9.23
2022-10-22T22:11:23.555Z,8.85
2022-10-22T22:13:51.616Z,7.15
2022-10-22T22:16:28.629Z,8.07
2022-10-22T22:18:58.464Z,8.67
2022-10-22T22:21:25.880Z,8.50
2022-10-22T22:23:53.112Z,8.45
2022-10-22T22:26:25.474Z,8.48
2022-10-22T22:28:56.118Z,7.75
2022-10-22T22:31:29.487Z,8.47
2022-10-22T22:34:06.811Z,8.80
2022-10-22T22:36:39.698Z,8.80
2022-10-22T22:39:09.139Z,8.02
2022-10-22T22:41:36.301Z,7.53
2022-10-22T22:44:03.512Z,9.07
2022-10-22T22:46:30.744Z,9.00
2022-10-22T22:48:57.924Z,8.18
2022-10-22T22:51:25.235Z,9.05
2022-10-22T22:53:52.469Z,8.85
2022-10-22T22:56:25.331Z,8.47
2022-10-22T22:58:52.749Z,7.47
2022-10-22T23:01:26.967Z,9.10
2022-10-22T23:03:57.132Z,8.85
2022-10-22T23:06:25.744Z,9.02
2022-10-22T23:08:54.086Z,7.43
2022-10-22T23:11:22.446Z,7.18
2022-10-22T23:13:54.457Z,7.68
2022-10-22T23:16:24.148Z,9.35
2022-10-22T23:18:53.405Z,7.95
2022-10-22T23:21:32.116Z,9.43
2022-10-22T23:24:01.817Z,7.95
2022-10-22T23:26:35.413Z,8.52
2022-10-22T23:29:07.133Z,8.05
2022-10-22T23:31:34.541Z,8.70
2022-10-22T23:34:01.294Z,9.47
2022-10-22T23:36:28.686Z,9.80
2022-10-22T23:38:55.770Z,8.15
2022-10-22T23:41:22.921Z,9.15
2022-10-22T23:43:50.941Z,7.80
2022-10-22T23:46:17.754Z,8.43
2022-10-22T23:48:45.148Z,9.10
2022-10-22T23:51:15.582Z,7.80
2022-10-22T23:53:43.935Z,8.52
2022-10-22T23:56:14.330Z,9.23
2022-10-22T23:58:42.335Z,7.50
